createdAt,value
2023-03-31T00:01:44.223Z,71.93
2023-03-31T00:04:13.463Z,70.99
2023-03-31T00:06:42.248Z,71.09
2023-03-31T00:09:14.048Z,71.18
2023-03-31T00:11:40.921Z,70.82
2023-03-31T00:14:08.321Z,70.91
2023-03-31T00:16:35.686Z,71.37
2023-03-31T00:19:02.494Z,69.91
2023-03-31T00:21:33.477Z,70.06
2023-03-31T00:24:02.148Z,70.29
2023-03-31T00:26:29.332Z,70.14
2023-03-31T00:28:56.754Z,70.67
2023-03-31T00:31:23.608Z,70.71
2023-03-31T00:33:50.634Z,70.44
2023-03-31T00:36:21.316Z,71.10
2023-03-31T00:38:48.511Z,70.46
2023-03-31T00:41:15.942Z,70.61
2023-03-31T00:44:24.199Z,70.73
2023-03-31T00:47:10.364Z,70.32
2023-03-31T00:49:45.006Z,70.83
2023-03-31T00:52:18.927Z,71.36
2023-03-31T00:54:48.254Z,71.14
2023-03-31T00:57:15.898Z,70.09
2023-03-31T00:59:57.737Z,70.27
2023-03-31T01:02:27.513Z,70.78
2023-03-31T01:05:02.030Z,69.95
2023-03-31T01:07:46.048Z,70.32
2023-03-31T01:10:13.237Z,69.77
2023-03-31T01:12:46.621Z,69.47
2023-03-31T01:15:13.613Z,69.42
2023-03-31T01:17:44.957Z,69.52
2023-03-31T01:20:29.770Z,69.66
2023-03-31T01:23:08.726Z,69.93
2023-03-31T01:26:07.584Z,69.59
2023-03-31T01:29:02.150Z,69.56
2023-03-31T01:31:52.904Z,69.41
2023-03-31T01:34:46.099Z,69.54
2023-03-31T01:37:21.189Z,69.92
2023-03-31T01:40:03.017Z,69.24
2023-03-31T01:42:37.252Z,69.84
2023-03-31T01:45:24.604Z,69.84
2023-03-31T01:48:09.441Z,69.45
2023-03-31T01:50:44.089Z,69.14
2023-03-31T01:53:34.766Z,69.51
2023-03-31T01:56:16.168Z,68.97
2023-03-31T01:58:51.145Z,68.77
2023-03-31T02:01:31.130Z,68.41
2023-03-31T02:04:07.535Z,68.97
2023-03-31T02:06:39.761Z,69.21
2023-03-31T02:09:13.378Z,68.94
2023-03-31T02:11:41.992Z,68.99
2023-03-31T02:14:12.140Z,68.83
2023-03-31T02:16:47.570Z,68.88
2023-03-31T02:19:18.649Z,67.96
2023-03-31T02:21:49.744Z,67.77
2023-03-31T02:24:19.529Z,68.38
2023-03-31T02:26:53.856Z,67.55
2023-03-31T02:29:20.820Z,67.63
2023-03-31T02:32:04.407Z,67.62
2023-03-31T02:34:31.242Z,67.75
2023-03-31T02:36:57.685Z,67.85
2023-03-31T02:39:29.619Z,68.33
2023-03-31T02:41:56.700Z,68.20
2023-03-31T02:44:23.650Z,69.16
2023-03-31T02:46:50.593Z,69.20
2023-03-31T02:49:19.704Z,69.80
2023-03-31T02:52:11.189Z,70.73
2023-03-31T02:54:54.329Z,71.71
2023-03-31T02:57:32.856Z,71.00
2023-03-31T03:00:16.671Z,72.32
2023-03-31T03:03:09.248Z,72.17
2023-03-31T03:05:54.731Z,73.66
2023-03-31T03:08:33.445Z,73.65
2023-03-31T03:11:12.182Z,75.41
2023-03-31T03:13:52.441Z,74.65
2023-03-31T03:16:28.936Z,77.06
2023-03-31T03:19:00.180Z,78.46
2023-03-31T03:21:27.036Z,77.99
2023-03-31T03:23:53.517Z,77.45
2023-03-31T03:26:28.111Z,78.12
2023-03-31T03:28:55.723Z,78.59
2023-03-31T03:31:23.974Z,78.11
2023-03-31T03:33:50.957Z,78.93
2023-03-31T03:36:17.264Z,79.05
2023-03-31T03:38:43.610Z,78.49
2023-03-31T03:41:10.195Z,78.50
2023-03-31T03:43:36.537Z,77.89
2023-03-31T03:46:03.045Z,77.86
2023-03-31T03:48:29.567Z,77.95
2023-03-31T03:50:57.229Z,77.03
2023-03-31T03:53:23.500Z,77.99
2023-03-31T03:55:49.894Z,78.14
2023-03-31T03:58:18.940Z,78.48
2023-03-31T04:00:46.164Z,77.46
2023-03-31T04:03:13.562Z,76.75
2023-03-31T04:05:40.145Z,77.07
2023-03-31T04:08:08.356Z,76.87
2023-03-31T04:10:38.179Z,76.99
2023-03-31T04:13:04.465Z,75.94
2023-03-31T04:15:30.803Z,76.78
2023-03-31T04:17:58.015Z,76.76
2023-03-31T04:20:27.667Z,76.32
2023-03-31T04:22:54.603Z,76.67
2023-03-31T04:25:22.543Z,76.15
2023-03-31T04:27:54.711Z,76.76
2023-03-31T04:30:30.509Z,76.00
2023-03-31T04:32:59.329Z,76.29
2023-03-31T04:35:42.616Z,76.24
2023-03-31T04:38:09.842Z,75.04
2023-03-31T04:40:36.102Z,76.12
2023-03-31T04:43:02.422Z,76.14
2023-03-31T04:45:28.747Z,76.16
2023-03-31T04:47:55.156Z,76.34
2023-03-31T04:50:21.508Z,76.04
2023-03-31T04:52:47.763Z,76.07
2023-03-31T04:55:14.113Z,75.35
2023-03-31T04:57:40.481Z,74.85
2023-03-31T05:00:07.885Z,75.04
2023-03-31T05:02:34.286Z,76.00
2023-03-31T05:05:00.599Z,74.76
2023-03-31T05:07:26.948Z,73.88
2023-03-31T05:09:53.226Z,74.24
2023-03-31T05:12:19.526Z,73.90
2023-03-31T05:14:45.867Z,74.57
2023-03-31T05:17:12.177Z,74.61
2023-03-31T05:19:38.446Z,75.01
2023-03-31T05:22:04.788Z,75.37
2023-03-31T05:24:31.311Z,75.72
2023-03-31T05:26:57.616Z,77.36
2023-03-31T05:29:24.450Z,77.55
2023-03-31T05:31:50.936Z,78.38
2023-03-31T05:34:17.299Z,78.52
2023-03-31T05:36:43.713Z,79.05
2023-03-31T05:39:10.638Z,79.10
2023-03-31T05:41:36.938Z,79.09
2023-03-31T05:44:03.226Z,80.02
2023-03-31T05:46:29.702Z,79.84
2023-03-31T05:48:56.458Z,79.89
2023-03-31T05:51:23.322Z,81.28
2023-03-31T05:53:49.627Z,81.23
2023-03-31T05:56:15.997Z,81.00
2023-03-31T05:58:42.630Z,81.37
2023-03-31T06:01:12.063Z,80.27
2023-03-31T06:03:41.362Z,80.53
2023-03-31T06:06:09.631Z,80.80
2023-03-31T06:08:37.646Z,79.83
2023-03-31T06:11:06.501Z,80.96
2023-03-31T06:13:34.140Z,79.81
2023-03-31T06:16:01.235Z,81.27
2023-03-31T06:18:29.478Z,80.71
2023-03-31T06:20:56.794Z,80.98
2023-03-31T06:23:23.799Z,81.51
2023-03-31T06:25:52.031Z,81.21
2023-03-31T06:28:19.927Z,80.88
2023-03-31T06:30:46.292Z,81.68
2023-03-31T06:33:13.521Z,80.87
2023-03-31T06:35:41.340Z,81.12
2023-03-31T06:38:07.963Z,81.62
2023-03-31T06:40:34.333Z,81.74
2023-03-31T06:43:01.160Z,81.19
2023-03-31T06:45:27.446Z,80.31
2023-03-31T06:47:53.745Z,80.91
2023-03-31T06:50:20.132Z,80.73
2023-03-31T06:52:47.057Z,81.22
2023-03-31T06:55:15.438Z,81.05
2023-03-31T06:57:42.284Z,80.48
2023-03-31T07:00:09.238Z,80.41
2023-03-31T07:02:37.160Z,80.56
2023-03-31T07:05:03.920Z,78.82
2023-03-31T07:07:33.849Z,78.70
2023-03-31T07:10:00.186Z,77.40
2023-03-31T07:12:26.456Z,77.17
2023-03-31T07:14:52.769Z,77.02
2023-03-31T07:17:19.158Z,77.89
2023-03-31T07:19:48.029Z,77.66
2023-03-31T07:22:15.701Z,77.68
2023-03-31T07:24:42.172Z,77.63
2023-03-31T07:27:08.590Z,77.96
2023-03-31T07:29:34.860Z,78.12
2023-03-31T07:32:01.404Z,77.81
2023-03-31T07:34:27.686Z,78.38
2023-03-31T07:36:56.890Z,79.11
2023-03-31T07:39:23.400Z,79.52
2023-03-31T07:41:49.691Z,78.98
2023-03-31T07:44:17.482Z,79.31
2023-03-31T07:46:43.858Z,79.37
2023-03-31T07:49:10.440Z,79.79
2023-03-31T07:51:36.812Z,79.77
2023-03-31T07:54:03.206Z,79.50
2023-03-31T07:56:29.503Z,79.34
2023-03-31T07:58:57.540Z,79.98
2023-03-31T08:01:28.808Z,79.28
2023-03-31T08:03:55.635Z,77.91
2023-03-31T08:06:24.459Z,78.31
2023-03-31T08:08:50.827Z,77.38
2023-03-31T08:11:18.480Z,77.75
2023-03-31T08:13:44.813Z,75.42
2023-03-31T08:16:11.200Z,73.77
2023-03-31T08:18:37.594Z,72.80
2023-03-31T08:21:04.239Z,70.07
2023-03-31T08:23:30.556Z,69.68
2023-03-31T08:26:16.553Z,69.98
2023-03-31T08:28:44.690Z,70.80
2023-03-31T08:31:11.721Z,71.68
2023-03-31T08:33:38.215Z,72.28
2023-03-31T08:36:08.907Z,73.19
2023-03-31T08:38:37.647Z,74.31
2023-03-31T08:41:07.585Z,74.45
2023-03-31T08:43:40.704Z,75.66
2023-03-31T08:46:13.900Z,75.31
2023-03-31T08:48:48.671Z,76.89
2023-03-31T08:51:31.283Z,76.44
2023-03-31T08:54:11.905Z,76.54
2023-03-31T08:56:43.463Z,76.61
2023-03-31T08:59:40.998Z,76.94
2023-03-31T09:02:44.033Z,76.73
2023-03-31T09:05:53.132Z,73.38
2023-03-31T09:08:33.521Z,71.90
2023-03-31T09:13:55.755Z,73.35
2023-03-31T09:16:22.111Z,74.19
2023-03-31T09:18:49.102Z,75.50
2023-03-31T09:21:44.316Z,76.17
2023-03-31T09:24:32.981Z,77.17
2023-03-31T09:27:06.882Z,77.35
2023-03-31T09:29:52.384Z,77.81
2023-03-31T09:32:25.358Z,77.84
2023-03-31T09:35:01.651Z,77.65
2023-03-31T09:37:32.679Z,77.00
2023-03-31T09:40:07.686Z,76.19
2023-03-31T09:42:35.651Z,73.30
2023-03-31T09:45:02.694Z,71.73
2023-03-31T09:47:38.856Z,71.15
2023-03-31T09:50:07.678Z,71.64
2023-03-31T09:52:50.371Z,71.82
2023-03-31T09:55:38.997Z,73.67
2023-03-31T09:58:08.501Z,76.00
2023-03-31T10:00:36.142Z,76.53
2023-03-31T10:03:07.599Z,78.31
2023-03-31T10:05:51.729Z,78.64
2023-03-31T10:08:26.294Z,78.86
2023-03-31T10:11:01.685Z,78.32
2023-03-31T10:13:46.860Z,77.55
2023-03-31T10:16:27.766Z,77.45
2023-03-31T10:18:54.227Z,74.86
2023-03-31T10:21:26.345Z,72.94
2023-03-31T10:23:53.736Z,70.67
2023-03-31T10:26:22.694Z,70.43
2023-03-31T10:28:52.534Z,70.51
2023-03-31T10:31:20.144Z,70.24
2023-03-31T10:33:48.719Z,70.17
2023-03-31T10:36:21.923Z,70.03
2023-03-31T10:38:50.066Z,70.64
2023-03-31T10:41:23.673Z,71.27
2023-03-31T10:43:58.425Z,71.52
2023-03-31T10:46:46.150Z,72.64
2023-03-31T10:49:21.399Z,73.53
2023-03-31T10:51:59.140Z,74.26
2023-03-31T10:54:26.612Z,75.12
2023-03-31T10:56:56.438Z,75.34
2023-03-31T11:00:02.059Z,75.45
2023-03-31T11:02:51.218Z,75.56
2023-03-31T11:05:48.952Z,74.89
2023-03-31T11:08:36.924Z,75.09
2023-03-31T11:11:12.468Z,74.91
2023-03-31T11:13:48.169Z,74.65
2023-03-31T11:16:32.925Z,76.83
2023-03-31T11:19:32.548Z,73.29
2023-03-31T11:22:17.223Z,70.52
2023-03-31T11:24:55.522Z,66.67
2023-03-31T11:27:34.107Z,62.47
2023-03-31T11:30:17.512Z,63.57
2023-03-31T11:33:20.707Z,65.12
2023-03-31T11:35:47.207Z,62.95
2023-03-31T11:38:24.063Z,65.68
2023-03-31T11:41:01.211Z,67.40
2023-03-31T11:43:36.439Z,68.30
2023-03-31T11:46:15.207Z,68.99
2023-03-31T11:48:55.152Z,68.65
2023-03-31T11:51:28.185Z,67.98
2023-03-31T11:53:56.123Z,67.70
2023-03-31T11:56:26.449Z,66.75
2023-03-31T11:58:56.600Z,66.26
2023-03-31T12:01:33.654Z,65.51
2023-03-31T12:04:03.769Z,65.95
2023-03-31T12:06:33.706Z,65.61
2023-03-31T12:09:45.274Z,65.82
2023-03-31T12:12:27.811Z,65.52
2023-03-31T12:15:02.860Z,64.97
2023-03-31T12:17:29.648Z,66.46
2023-03-31T12:20:10.442Z,66.61
2023-03-31T12:22:44.202Z,62.78
2023-03-31T12:25:15.112Z,60.42
2023-03-31T12:27:42.841Z,60.60
2023-03-31T12:30:19.682Z,62.53
2023-03-31T12:33:12.357Z,64.28
2023-03-31T12:35:58.471Z,67.99
2023-03-31T12:38:30.928Z,70.42
2023-03-31T12:41:38.254Z,72.02
2023-03-31T12:44:39.509Z,73.82
2023-03-31T12:47:40.878Z,74.75
2023-03-31T12:50:19.287Z,75.72
2023-03-31T12:53:09.708Z,75.87
2023-03-31T12:56:08.754Z,75.72
2023-03-31T12:58:43.061Z,74.96
2023-03-31T13:01:20.156Z,74.53
2023-03-31T13:03:51.744Z,74.22
2023-03-31T13:06:30.298Z,73.99
2023-03-31T13:08:57.542Z,72.90
2023-03-31T13:11:32.935Z,72.20
2023-03-31T13:14:20.740Z,70.88
2023-03-31T13:16:48.948Z,69.99
2023-03-31T13:19:47.982Z,70.15
2023-03-31T13:22:33.232Z,69.10
2023-03-31T13:25:30.682Z,70.97
2023-03-31T13:27:59.252Z,71.81
2023-03-31T13:30:41.219Z,68.19
2023-03-31T13:33:10.661Z,68.70
2023-03-31T13:35:39.330Z,68.86
2023-03-31T13:38:25.656Z,68.41
2023-03-31T13:41:13.281Z,70.46
2023-03-31T13:43:58.416Z,71.55
2023-03-31T13:46:27.774Z,72.37
2023-03-31T13:49:37.423Z,71.69
2023-03-31T13:52:05.252Z,71.18
2023-03-31T13:55:13.950Z,71.24
2023-03-31T13:58:19.920Z,72.09
2023-03-31T14:01:14.277Z,73.36
2023-03-31T14:03:55.804Z,73.59
2023-03-31T14:06:36.991Z,73.24
2023-03-31T14:09:10.885Z,73.14
2023-03-31T14:11:37.618Z,73.80
2023-03-31T14:14:16.681Z,74.04
2023-03-31T14:16:48.748Z,73.95
2023-03-31T14:19:42.330Z,73.28
2023-03-31T14:23:02.843Z,72.67
2023-03-31T14:25:50.350Z,72.46
2023-03-31T14:28:42.438Z,72.47
2023-03-31T14:31:13.402Z,72.57
2023-03-31T14:33:58.501Z,74.03
2023-03-31T14:36:39.291Z,76.92
2023-03-31T14:39:10.717Z,70.81
2023-03-31T14:41:39.033Z,72.64
2023-03-31T14:44:07.516Z,67.62
2023-03-31T14:46:37.987Z,66.89
2023-03-31T14:49:19.929Z,64.93
2023-03-31T14:51:46.727Z,65.62
2023-03-31T14:54:18.488Z,67.08
2023-03-31T14:56:49.534Z,67.64
2023-03-31T14:59:22.533Z,68.64
2023-03-31T15:01:49.909Z,69.41
2023-03-31T15:04:20.445Z,69.30
2023-03-31T15:06:51.777Z,71.28
2023-03-31T15:09:28.341Z,71.40
2023-03-31T15:12:00.527Z,70.46
2023-03-31T15:14:34.371Z,71.15
2023-03-31T15:17:00.777Z,69.48
2023-03-31T15:19:34.208Z,68.50
2023-03-31T15:22:10.506Z,68.57
2023-03-31T15:24:36.998Z,69.49
2023-03-31T15:27:18.059Z,70.03
2023-03-31T15:29:56.047Z,70.20
2023-03-31T15:32:27.139Z,70.30
2023-03-31T15:34:55.487Z,71.38
2023-03-31T15:37:35.091Z,69.62
2023-03-31T15:40:07.042Z,68.09
2023-03-31T15:42:35.021Z,67.60
2023-03-31T15:45:15.754Z,66.42
2023-03-31T15:47:52.794Z,66.01
2023-03-31T15:50:24.228Z,67.46
2023-03-31T15:52:55.785Z,66.80
2023-03-31T15:55:39.353Z,67.82
2023-03-31T15:58:06.269Z,67.67
2023-03-31T16:00:47.695Z,67.42
2023-03-31T16:03:24.145Z,67.21
2023-03-31T16:06:01.212Z,68.14
2023-03-31T16:08:54.478Z,68.53
2023-03-31T16:11:33.205Z,68.30
2023-03-31T16:14:05.729Z,69.17
2023-03-31T16:16:33.185Z,69.93
2023-03-31T16:19:07.294Z,69.80
2023-03-31T16:21:42.083Z,70.26
2023-03-31T16:24:09.070Z,71.07
2023-03-31T16:26:37.290Z,71.21
2023-03-31T16:29:04.955Z,72.17
2023-03-31T16:31:41.496Z,71.70
2023-03-31T16:34:10.731Z,71.18
2023-03-31T16:36:37.141Z,71.28
2023-03-31T16:39:05.251Z,71.85
2023-03-31T16:41:33.122Z,70.60
2023-03-31T16:43:59.640Z,70.38
2023-03-31T16:46:26.326Z,71.03
2023-03-31T16:48:52.803Z,71.28
2023-03-31T16:51:19.890Z,71.37
2023-03-31T16:53:47.794Z,72.97
2023-03-31T16:56:14.411Z,73.29
2023-03-31T16:58:41.304Z,73.48
2023-03-31T17:01:08.613Z,73.51
2023-03-31T17:03:37.200Z,75.34
2023-03-31T17:06:10.518Z,75.94
2023-03-31T17:08:38.181Z,75.25
2023-03-31T17:11:07.871Z,74.39
2023-03-31T17:13:34.436Z,74.47
2023-03-31T17:16:16.828Z,73.88
2023-03-31T17:18:45.438Z,73.74
2023-03-31T17:21:14.433Z,73.85
2023-03-31T17:23:41.438Z,74.24
2023-03-31T17:26:09.654Z,72.00
2023-03-31T17:28:36.704Z,72.50
2023-03-31T17:31:11.310Z,72.67
2023-03-31T17:33:37.599Z,71.74
2023-03-31T17:36:04.188Z,72.15
2023-03-31T17:38:30.598Z,72.49
2023-03-31T17:41:02.909Z,71.63
2023-03-31T17:43:29.443Z,71.30
2023-03-31T17:46:07.453Z,71.63
2023-03-31T17:48:35.012Z,71.38
2023-03-31T17:51:10.239Z,70.92
2023-03-31T17:53:36.643Z,70.71
2023-03-31T17:56:04.285Z,70.22
2023-03-31T17:58:31.085Z,70.02
2023-03-31T18:00:57.700Z,69.64
2023-03-31T18:03:24.530Z,70.49
2023-03-31T18:05:50.880Z,71.24
2023-03-31T18:08:17.704Z,71.70
2023-03-31T18:10:44.074Z,71.38
2023-03-31T18:13:11.422Z,72.33
2023-03-31T18:15:38.765Z,72.75
2023-03-31T18:18:05.726Z,72.73
2023-03-31T18:20:32.639Z,73.53
2023-03-31T18:23:00.130Z,73.09
2023-03-31T18:25:26.921Z,72.58
2023-03-31T18:27:53.511Z,73.53
2023-03-31T18:30:19.997Z,74.29
2023-03-31T18:32:46.323Z,73.73
2023-03-31T18:35:12.708Z,73.23
2023-03-31T18:37:39.312Z,73.62
2023-03-31T18:40:06.251Z,72.92
2023-03-31T18:42:32.521Z,72.24
2023-03-31T18:44:58.858Z,72.27
2023-03-31T18:47:26.398Z,70.81
2023-03-31T18:49:55.513Z,70.61
2023-03-31T18:52:22.086Z,70.02
2023-03-31T18:54:49.987Z,70.69
2023-03-31T18:57:16.358Z,70.57
2023-03-31T18:59:43.380Z,69.18
2023-03-31T19:02:13.876Z,69.53
2023-03-31T19:04:40.398Z,70.11
2023-03-31T19:07:06.726Z,69.39
2023-03-31T19:09:33.058Z,69.18
2023-03-31T19:11:59.428Z,69.43
2023-03-31T19:14:25.757Z,69.64
2023-03-31T19:16:52.258Z,68.61
2023-03-31T19:19:18.666Z,69.78
2023-03-31T19:21:45.461Z,68.99
2023-03-31T19:24:11.897Z,68.83
2023-03-31T19:26:38.470Z,69.36
2023-03-31T19:29:05.404Z,69.13
2023-03-31T19:31:38.002Z,68.42
2023-03-31T19:34:05.723Z,69.02
2023-03-31T19:36:32.032Z,69.52
2023-03-31T19:38:59.208Z,69.56
2023-03-31T19:41:27.190Z,70.06
2023-03-31T19:43:54.295Z,69.62
2023-03-31T19:46:20.638Z,69.53
2023-03-31T19:48:46.962Z,69.69
2023-03-31T19:51:13.338Z,69.30
2023-03-31T19:53:40.909Z,70.89
2023-03-31T19:56:09.671Z,70.37
2023-03-31T19:58:37.048Z,71.42
2023-03-31T20:01:13.285Z,70.42
2023-03-31T20:03:39.677Z,70.62
2023-03-31T20:06:09.090Z,71.10
2023-03-31T20:08:37.016Z,71.43
2023-03-31T20:11:05.899Z,71.42
2023-03-31T20:13:35.648Z,71.46
2023-03-31T20:16:05.824Z,71.41
2023-03-31T20:18:32.576Z,71.75
2023-03-31T20:21:11.302Z,71.36
2023-03-31T20:23:38.891Z,71.46
2023-03-31T20:26:08.794Z,71.76
2023-03-31T20:28:37.694Z,71.01
2023-03-31T20:31:15.657Z,71.77
2023-03-31T20:33:43.161Z,71.80
2023-03-31T20:36:15.472Z,71.53
2023-03-31T20:38:44.957Z,71.91
2023-03-31T20:41:11.487Z,72.14
2023-03-31T20:43:38.458Z,71.88
2023-03-31T20:46:07.419Z,70.88
2023-03-31T20:48:42.871Z,72.04
2023-03-31T20:51:12.221Z,71.08
2023-03-31T20:53:47.507Z,70.54
2023-03-31T20:56:16.819Z,70.96
2023-03-31T20:58:44.359Z,71.00
2023-03-31T21:01:11.818Z,70.63
2023-03-31T21:03:38.393Z,71.30
2023-03-31T21:06:11.083Z,71.63
2023-03-31T21:08:38.077Z,72.15
2023-03-31T21:11:04.422Z,72.38
2023-03-31T21:13:32.000Z,72.06
2023-03-31T21:15:59.753Z,72.76
2023-03-31T21:18:27.297Z,71.79
2023-03-31T21:20:56.809Z,71.82
2023-03-31T21:23:24.567Z,72.44
2023-03-31T21:25:53.690Z,72.30
2023-03-31T21:28:22.775Z,72.72
2023-03-31T21:30:50.808Z,71.97
2023-03-31T21:33:17.606Z,72.42
2023-03-31T21:35:44.145Z,71.02
2023-03-31T21:38:10.451Z,71.20
2023-03-31T21:40:36.889Z,71.40
2023-03-31T21:43:03.293Z,71.07
2023-03-31T21:45:30.812Z,70.47
2023-03-31T21:47:58.010Z,70.96
2023-03-31T21:50:24.357Z,70.63
2023-03-31T21:52:50.660Z,70.95
2023-03-31T21:55:17.019Z,70.70
2023-03-31T21:57:43.356Z,70.62
2023-03-31T22:00:12.316Z,70.08
2023-03-31T22:02:39.242Z,70.14
2023-03-31T22:05:06.032Z,69.46
2023-03-31T22:07:32.450Z,70.23
2023-03-31T22:09:58.978Z,70.12
2023-03-31T22:12:26.390Z,69.57
2023-03-31T22:14:52.674Z,69.55
2023-03-31T22:17:20.681Z,70.08
2023-03-31T22:19:47.922Z,69.81
2023-03-31T22:22:14.222Z,69.25
2023-03-31T22:24:40.610Z,69.35
2023-03-31T22:27:07.194Z,70.56
2023-03-31T22:29:33.843Z,70.34
2023-03-31T22:32:00.427Z,69.86
2023-03-31T22:34:26.787Z,70.19
2023-03-31T22:36:53.144Z,69.93
2023-03-31T22:39:19.508Z,69.84
2023-03-31T22:41:48.158Z,69.66
2023-03-31T22:44:14.482Z,69.88
2023-03-31T22:46:41.412Z,70.17
2023-03-31T22:49:07.735Z,69.88
2023-03-31T22:51:34.853Z,69.13
2023-03-31T22:54:01.154Z,69.05
2023-03-31T22:56:28.226Z,69.60
2023-03-31T22:58:57.444Z,69.76
2023-03-31T23:01:24.240Z,69.52
2023-03-31T23:03:50.954Z,68.96
2023-03-31T23:06:17.284Z,69.48
2023-03-31T23:08:45.251Z,68.36
2023-03-31T23:11:12.941Z,67.94
2023-03-31T23:13:39.643Z,67.25
2023-03-31T23:16:07.417Z,68.07
2023-03-31T23:18:34.552Z,67.24
2023-03-31T23:21:04.285Z,67.00
2023-03-31T23:23:30.669Z,67.12
2023-03-31T23:26:00.734Z,67.12
2023-03-31T23:28:27.545Z,66.58
2023-03-31T23:30:56.674Z,67.13
2023-03-31T23:33:24.230Z,66.32
2023-03-31T23:35:52.434Z,66.70
2023-03-31T23:38:19.934Z,66.85
2023-03-31T23:40:46.614Z,67.20
2023-03-31T23:43:13.429Z,66.81
2023-03-31T23:45:39.726Z,66.49
2023-03-31T23:48:06.117Z,66.65
2023-03-31T23:50:33.844Z,66.28
2023-03-31T23:53:01.273Z,66.93
2023-03-31T23:55:28.579Z,66.57
2023-03-31T23:57:55.248Z,66.70
